createdAt,value
2019-02-24T00:02:03.452Z,1.30
2019-02-24T00:04:32.792Z,1.30
2019-02-24T00:07:02.044Z,1.30
2019-02-24T00:09:31.352Z,1.30
2019-02-24T00:12:00.677Z,1.30
2019-02-24T00:14:29.959Z,1.30
2019-02-24T00:16:59.228Z,1.40
2019-02-24T00:19:28.519Z,1.40
2019-02-24T00:21:57.774Z,1.40
2019-02-24T00:24:27.155Z,1.40
2019-02-24T00:26:56.415Z,1.40
2019-02-24T00:29:25.708Z,1.40
2019-02-24T00:31:54.990Z,1.40
2019-02-24T00:34:24.371Z,1.40
2019-02-24T00:36:53.727Z,1.40
2019-02-24T00:39:22.995Z,1.40
2019-02-24T00:41:52.307Z,1.40
2019-02-24T00:44:21.562Z,1.50
2019-02-24T00:46:50.815Z,1.50
2019-02-24T00:49:20.051Z,1.50
2019-02-24T00:51:49.355Z,1.50
2019-02-24T00:54:18.670Z,1.50
2019-02-24T00:56:47.951Z,1.50
2019-02-24T00:59:18.088Z,1.50
2019-02-24T01:01:47.402Z,1.50
2019-02-24T01:04:16.698Z,1.60
2019-02-24T01:06:45.987Z,1.60
2019-02-24T01:09:15.346Z,1.60
2019-02-24T01:11:44.729Z,1.60
2019-02-24T01:14:14.046Z,1.60
2019-02-24T01:16:43.782Z,1.70
2019-02-24T01:19:13.054Z,1.70
2019-02-24T01:21:42.270Z,1.70
2019-02-24T01:24:11.546Z,1.70
2019-02-24T01:26:40.752Z,1.70
2019-02-24T01:29:09.999Z,1.70
2019-02-24T01:31:39.301Z,1.60
2019-02-24T01:34:08.623Z,1.60
2019-02-24T01:36:37.910Z,1.60
2019-02-24T01:39:08.903Z,1.60
2019-02-24T01:41:38.190Z,1.60
2019-02-24T01:44:07.402Z,1.50
2019-02-24T01:46:36.614Z,1.50
2019-02-24T01:49:06.027Z,1.50
2019-02-24T01:51:35.389Z,1.50
2019-02-24T01:54:04.669Z,1.50
2019-02-24T01:56:34.038Z,1.50
2019-02-24T01:59:03.350Z,1.50
2019-02-24T02:01:32.635Z,1.60
2019-02-24T02:04:01.950Z,1.60
2019-02-24T02:06:31.260Z,1.60
2019-02-24T02:09:00.517Z,1.60
2019-02-24T02:11:29.814Z,1.60
2019-02-24T02:13:59.145Z,1.60
2019-02-24T02:16:28.502Z,1.60
2019-02-24T02:18:57.834Z,1.60
2019-02-24T02:21:27.101Z,1.60
2019-02-24T02:23:56.401Z,1.60
2019-02-24T02:26:25.645Z,1.60
2019-02-24T02:28:54.865Z,1.60
2019-02-24T02:31:24.105Z,1.60
2019-02-24T02:33:53.325Z,1.60
2019-02-24T02:36:22.577Z,1.60
2019-02-24T02:38:51.917Z,1.70
2019-02-24T02:41:21.208Z,1.70
2019-02-24T02:43:50.463Z,1.70
2019-02-24T02:46:20.507Z,1.70
2019-02-24T02:48:49.882Z,1.60
2019-02-24T02:51:19.169Z,1.70
2019-02-24T02:53:48.528Z,1.60
2019-02-24T02:56:17.933Z,1.60
2019-02-24T02:58:53.857Z,1.70
2019-02-24T03:01:18.201Z,1.70
2019-02-24T03:03:47.530Z,1.70
2019-02-24T03:06:41.968Z,1.70
2019-02-24T03:09:12.238Z,1.70
2019-02-24T03:11:41.526Z,1.70
2019-02-24T03:14:10.845Z,1.70
2019-02-24T03:16:40.224Z,1.70
2019-02-24T03:19:09.604Z,1.70
2019-02-24T03:21:38.864Z,1.70
2019-02-24T03:24:08.161Z,1.70
2019-02-24T03:26:37.771Z,1.70
2019-02-24T03:29:07.053Z,1.70
2019-02-24T03:31:36.479Z,1.70
2019-02-24T03:34:05.831Z,1.70
2019-02-24T03:36:35.656Z,1.70
2019-02-24T03:39:06.279Z,1.70
2019-02-24T03:41:35.696Z,1.70
2019-02-24T03:44:04.976Z,1.70
2019-02-24T03:46:34.260Z,1.70
2019-02-24T03:49:03.543Z,1.70
2019-02-24T03:51:32.835Z,1.60
2019-02-24T03:54:02.914Z,1.70
2019-02-24T03:56:32.184Z,1.70
2019-02-24T03:59:01.446Z,1.70
2019-02-24T04:01:30.819Z,1.70
2019-02-24T04:04:00.100Z,1.70
2019-02-24T04:06:29.451Z,1.70
2019-02-24T04:08:58.747Z,1.70
2019-02-24T04:11:28.000Z,1.70
2019-02-24T04:13:57.287Z,1.70
2019-02-24T04:16:26.529Z,1.70
2019-02-24T04:18:55.817Z,1.70
2019-02-24T04:21:25.199Z,1.70
2019-02-24T04:23:54.547Z,1.70
2019-02-24T04:26:23.827Z,1.70
2019-02-24T04:28:53.070Z,1.70
2019-02-24T04:31:22.435Z,1.70
2019-02-24T04:33:51.776Z,1.70
2019-02-24T04:36:21.063Z,1.70
2019-02-24T04:38:50.355Z,1.70
2019-02-24T04:41:19.649Z,1.70
2019-02-24T04:43:48.931Z,1.70
2019-02-24T04:46:18.235Z,1.70
2019-02-24T04:48:47.519Z,1.70
2019-02-24T04:51:16.819Z,1.70
2019-02-24T04:53:46.159Z,1.60
2019-02-24T04:56:15.447Z,1.60
2019-02-24T04:58:44.700Z,1.60
2019-02-24T05:01:13.951Z,1.50
2019-02-24T05:03:43.320Z,1.50
2019-02-24T05:06:12.726Z,1.50
2019-02-24T05:08:42.015Z,1.50
2019-02-24T05:11:11.344Z,1.40
2019-02-24T05:13:40.630Z,1.40
2019-02-24T05:16:09.911Z,1.50
2019-02-24T05:18:39.176Z,1.50
2019-02-24T05:21:08.463Z,1.50
2019-02-24T05:23:37.738Z,1.50
2019-02-24T05:26:06.914Z,1.50
2019-02-24T05:28:36.154Z,1.60
2019-02-24T05:31:05.479Z,1.60
2019-02-24T05:33:34.714Z,1.60
2019-02-24T05:36:04.001Z,1.60
2019-02-24T05:38:33.299Z,1.50
2019-02-24T05:41:02.606Z,1.60
2019-02-24T05:43:31.950Z,1.50
2019-02-24T05:46:01.218Z,1.50
2019-02-24T05:48:30.593Z,1.50
2019-02-24T05:50:59.842Z,1.50
2019-02-24T05:53:29.126Z,1.50
2019-02-24T05:55:58.398Z,1.50
2019-02-24T05:58:27.694Z,1.50
2019-02-24T06:00:57.777Z,1.40
2019-02-24T06:03:27.142Z,1.40
2019-02-24T06:05:56.406Z,1.40
2019-02-24T06:08:25.710Z,1.40
2019-02-24T06:10:54.929Z,1.30
2019-02-24T06:13:24.207Z,1.30
2019-02-24T06:15:53.474Z,1.30
2019-02-24T06:18:22.916Z,1.30
2019-02-24T06:20:52.142Z,1.30
2019-02-24T06:23:21.453Z,1.30
2019-02-24T06:25:50.752Z,1.30
2019-02-24T06:28:20.773Z,1.30
2019-02-24T06:30:50.888Z,1.30
2019-02-24T06:33:21.290Z,1.30
2019-02-24T06:35:50.917Z,1.40
2019-02-24T06:38:20.197Z,1.40
2019-02-24T06:40:49.572Z,1.40
2019-02-24T06:43:18.849Z,1.40
2019-02-24T06:45:48.113Z,1.40
2019-02-24T06:48:17.485Z,1.40
2019-02-24T06:51:01.933Z,1.40
2019-02-24T06:53:31.248Z,1.40
2019-02-24T06:56:00.497Z,1.30
2019-02-24T06:58:29.793Z,1.30
2019-02-24T07:00:59.149Z,1.30
2019-02-24T07:03:28.493Z,1.40
2019-02-24T07:05:57.788Z,1.40
2019-02-24T07:08:27.196Z,1.50
2019-02-24T07:10:56.580Z,1.60
2019-02-24T07:13:25.952Z,1.70
2019-02-24T07:15:56.072Z,1.70
2019-02-24T07:18:25.360Z,1.80
2019-02-24T07:20:54.644Z,1.80
2019-02-24T07:23:25.092Z,1.90
2019-02-24T07:25:54.432Z,1.90
2019-02-24T07:28:23.734Z,2.00
2019-02-24T07:30:53.113Z,2.00
2019-02-24T07:33:23.038Z,2.10
2019-02-24T07:35:52.388Z,2.20
2019-02-24T07:38:23.360Z,2.20
2019-02-24T07:40:53.340Z,2.30
2019-02-24T07:43:24.187Z,2.30
2019-02-24T07:45:54.559Z,2.40
2019-02-24T07:48:24.511Z,2.50
2019-02-24T07:50:53.844Z,2.50
2019-02-24T07:53:23.100Z,2.60
2019-02-24T07:55:52.406Z,2.60
2019-02-24T07:58:21.727Z,2.60
2019-02-24T08:00:50.980Z,2.70
2019-02-24T08:03:20.266Z,2.70
2019-02-24T08:05:49.548Z,2.80
2019-02-24T08:08:18.880Z,2.80
2019-02-24T08:10:50.599Z,2.80
2019-02-24T08:13:19.831Z,2.90
2019-02-24T08:15:49.143Z,2.80
2019-02-24T08:18:22.835Z,2.80
2019-02-24T08:20:52.118Z,2.80
2019-02-24T08:23:21.959Z,2.70
2019-02-24T08:25:51.147Z,2.70
2019-02-24T08:28:20.427Z,2.70
2019-02-24T08:30:49.683Z,2.80
2019-02-24T08:33:19.519Z,3.00
2019-02-24T08:35:48.853Z,3.10
2019-02-24T08:38:18.875Z,3.20
2019-02-24T08:40:48.951Z,3.30
2019-02-24T08:43:18.724Z,3.40
2019-02-24T08:45:48.431Z,3.40
2019-02-24T08:48:19.287Z,3.50
2019-02-24T08:50:49.562Z,3.50
2019-02-24T08:53:18.831Z,3.60
2019-02-24T08:55:48.090Z,3.60
2019-02-24T08:58:17.794Z,3.60
2019-02-24T09:00:51.102Z,3.60
2019-02-24T09:03:18.119Z,3.70
2019-02-24T09:05:47.402Z,3.70
2019-02-24T09:08:17.426Z,3.80
2019-02-24T09:10:46.830Z,3.90
2019-02-24T09:13:16.130Z,3.90
2019-02-24T09:15:45.386Z,4.00
2019-02-24T09:18:14.671Z,4.00
2019-02-24T09:20:44.250Z,4.00
2019-02-24T09:23:13.554Z,4.00
2019-02-24T09:25:42.929Z,4.00
2019-02-24T09:28:12.299Z,4.00
2019-02-24T09:30:42.056Z,4.00
2019-02-24T09:33:11.306Z,4.20
2019-02-24T09:35:41.559Z,4.30
2019-02-24T09:38:10.839Z,4.40
2019-02-24T09:40:40.173Z,4.40
2019-02-24T09:43:11.522Z,4.50
2019-02-24T09:45:41.466Z,4.60
2019-02-24T09:48:11.577Z,4.60
2019-02-24T09:50:41.509Z,4.60
2019-02-24T09:53:12.109Z,4.60
2019-02-24T09:55:42.022Z,4.70
2019-02-24T09:58:11.347Z,4.70
2019-02-24T10:00:41.690Z,4.80
2019-02-24T10:03:11.709Z,4.80
2019-02-24T10:05:42.949Z,4.90
2019-02-24T10:08:12.226Z,4.90
2019-02-24T10:10:41.494Z,5.00
2019-02-24T10:13:11.097Z,5.00
2019-02-24T10:15:40.333Z,5.10
2019-02-24T10:18:10.492Z,5.20
2019-02-24T10:20:41.217Z,5.30
2019-02-24T10:23:11.481Z,5.30
2019-02-24T10:25:43.163Z,5.40
2019-02-24T10:28:12.768Z,5.50
2019-02-24T10:30:43.160Z,5.60
2019-02-24T10:33:12.489Z,5.70
2019-02-24T10:35:41.780Z,5.90
2019-02-24T10:38:11.764Z,6.00
2019-02-24T10:40:42.169Z,6.20
2019-02-24T10:43:11.786Z,6.30
2019-02-24T10:45:42.053Z,6.40
2019-02-24T10:48:14.025Z,6.50
2019-02-24T10:50:43.571Z,6.60
2019-02-24T10:53:12.825Z,6.80
2019-02-24T10:55:42.197Z,7.00
2019-02-24T10:58:12.218Z,7.00
2019-02-24T11:00:42.644Z,7.00
2019-02-24T11:03:11.969Z,7.00
2019-02-24T11:05:41.632Z,7.10
2019-02-24T11:08:12.453Z,7.20
2019-02-24T11:10:43.728Z,7.30
2019-02-24T11:13:13.024Z,7.30
2019-02-24T11:15:42.309Z,7.30
2019-02-24T11:18:11.708Z,7.30
2019-02-24T11:20:40.952Z,7.40
2019-02-24T11:23:11.508Z,7.40
2019-02-24T11:25:41.032Z,7.50
2019-02-24T11:28:11.340Z,7.50
2019-02-24T11:30:40.819Z,7.60
2019-02-24T11:33:10.131Z,7.60
2019-02-24T11:35:40.832Z,7.60
2019-02-24T11:38:10.220Z,7.70
2019-02-24T11:40:39.559Z,7.70
2019-02-24T11:43:08.851Z,7.70
2019-02-24T11:45:38.131Z,7.80
2019-02-24T11:48:07.712Z,7.80
2019-02-24T11:50:37.767Z,7.70
2019-02-24T11:53:07.188Z,7.70
2019-02-24T11:55:36.935Z,7.70
2019-02-24T11:58:06.632Z,7.70
2019-02-24T12:00:36.387Z,7.80
2019-02-24T12:03:05.739Z,8.00
2019-02-24T12:05:35.095Z,8.10
2019-02-24T12:08:04.512Z,8.20
2019-02-24T12:10:35.840Z,8.30
2019-02-24T12:13:05.199Z,8.60
2019-02-24T12:15:34.487Z,9.30
2019-02-24T12:18:03.751Z,9.90
2019-02-24T12:20:33.060Z,10.40
2019-02-24T12:23:02.336Z,10.60
2019-02-24T12:25:31.615Z,10.50
2019-02-24T12:28:00.875Z,10.40
2019-02-24T12:30:30.229Z,10.10
2019-02-24T12:32:59.534Z,10.10
2019-02-24T12:35:28.798Z,10.10
2019-02-24T12:37:58.082Z,10.20
2019-02-24T12:40:27.346Z,10.20
2019-02-24T12:42:56.620Z,10.30
2019-02-24T12:45:25.962Z,10.40
2019-02-24T12:47:55.264Z,10.50
2019-02-24T12:50:24.558Z,10.80
2019-02-24T12:52:53.855Z,11.00
2019-02-24T12:55:23.414Z,11.00
2019-02-24T12:57:53.087Z,11.00
2019-02-24T13:00:22.654Z,11.10
2019-02-24T13:02:52.018Z,11.30
2019-02-24T13:05:22.462Z,11.60
2019-02-24T13:07:51.935Z,11.90
2019-02-24T13:10:21.294Z,12.20
2019-02-24T13:12:51.282Z,12.40
2019-02-24T13:15:20.614Z,12.60
2019-02-24T13:17:50.022Z,12.70
2019-02-24T13:20:19.475Z,12.90
2019-02-24T13:22:48.748Z,12.90
2019-02-24T13:25:18.047Z,13.00
2019-02-24T13:27:47.432Z,13.10
2019-02-24T13:30:17.348Z,13.20
2019-02-24T13:32:46.607Z,13.30
2019-02-24T13:35:16.594Z,13.40
2019-02-24T13:37:45.856Z,13.40
2019-02-24T13:40:15.158Z,13.50
2019-02-24T13:42:44.442Z,13.60
2019-02-24T13:45:14.537Z,13.70
2019-02-24T13:47:44.741Z,13.80
2019-02-24T13:50:14.650Z,13.70
2019-02-24T13:52:44.009Z,13.70
2019-02-24T13:55:13.429Z,13.70
2019-02-24T13:57:42.844Z,13.60
2019-02-24T14:00:15.817Z,13.20
2019-02-24T14:02:45.093Z,12.80
2019-02-24T14:05:14.497Z,12.50
2019-02-24T14:07:43.865Z,12.30
2019-02-24T14:10:13.223Z,12.50
2019-02-24T14:12:42.754Z,12.80
2019-02-24T14:15:12.450Z,13.10
2019-02-24T14:17:41.750Z,13.40
2019-02-24T14:20:11.878Z,13.60
2019-02-24T14:22:41.209Z,13.80
2019-02-24T14:25:10.685Z,13.90
2019-02-24T14:27:40.290Z,13.90
2019-02-24T14:30:11.533Z,14.00
2019-02-24T14:32:40.885Z,14.10
2019-02-24T14:35:11.433Z,14.20
2019-02-24T14:37:40.753Z,14.30
2019-02-24T14:40:10.157Z,14.30
2019-02-24T14:42:39.437Z,14.30
2019-02-24T14:45:11.645Z,14.20
2019-02-24T14:47:41.065Z,14.20
2019-02-24T14:50:10.529Z,14.20
2019-02-24T14:52:39.840Z,14.10
2019-02-24T14:55:09.361Z,14.00
2019-02-24T14:57:38.622Z,14.00
2019-02-24T15:00:09.949Z,14.00
2019-02-24T15:02:42.421Z,14.00
2019-02-24T15:05:10.621Z,14.10
2019-02-24T15:07:39.948Z,14.10
2019-02-24T15:10:10.777Z,14.10
2019-02-24T15:12:40.113Z,14.00
2019-02-24T15:15:13.417Z,14.00
2019-02-24T15:17:42.621Z,14.00
2019-02-24T15:20:14.161Z,13.90
2019-02-24T15:22:44.340Z,13.50
2019-02-24T15:25:14.824Z,13.00
2019-02-24T15:27:44.121Z,12.50
2019-02-24T15:30:17.725Z,12.10
2019-02-24T15:32:51.560Z,11.80
2019-02-24T15:35:18.372Z,11.50
2019-02-24T15:37:47.716Z,11.30
2019-02-24T15:40:17.432Z,11.00
2019-02-24T15:42:46.700Z,10.90
2019-02-24T15:45:15.996Z,10.70
2019-02-24T15:47:45.387Z,10.60
2019-02-24T15:50:14.792Z,10.40
2019-02-24T15:52:44.125Z,10.30
2019-02-24T15:55:13.512Z,10.20
2019-02-24T15:57:42.816Z,10.10
2019-02-24T16:00:13.569Z,9.90
2019-02-24T16:02:42.904Z,9.90
2019-02-24T16:05:12.696Z,9.70
2019-02-24T16:07:41.960Z,9.60
2019-02-24T16:10:13.247Z,9.60
2019-02-24T16:12:42.575Z,9.40
2019-02-24T16:15:13.064Z,9.40
2019-02-24T16:17:42.443Z,9.30
2019-02-24T16:20:14.679Z,9.20
2019-02-24T16:22:44.064Z,9.10
2019-02-24T16:25:13.403Z,9.00
2019-02-24T16:27:42.800Z,8.90
2019-02-24T16:30:13.236Z,8.90
2019-02-24T16:32:42.499Z,8.80
2019-02-24T16:35:13.079Z,8.70
2019-02-24T16:37:42.331Z,8.60
2019-02-24T16:40:16.749Z,8.60
2019-02-24T16:42:46.010Z,8.50
2019-02-24T16:45:15.631Z,8.50
2019-02-24T16:47:44.911Z,8.40
2019-02-24T16:50:15.287Z,8.30
2019-02-24T16:52:44.580Z,8.30
2019-02-24T16:55:14.566Z,8.20
2019-02-24T16:57:43.875Z,8.20
2019-02-24T17:00:15.963Z,8.10
2019-02-24T17:02:45.212Z,8.10
2019-02-24T17:05:14.772Z,8.00
2019-02-24T17:07:44.157Z,8.00
2019-02-24T17:10:14.967Z,8.00
2019-02-24T17:12:44.270Z,7.90
2019-02-24T17:15:13.727Z,7.80
2019-02-24T17:17:42.985Z,7.80
2019-02-24T17:20:13.780Z,7.70
2019-02-24T17:22:43.048Z,7.70
2019-02-24T17:25:32.273Z,7.60
2019-02-24T17:27:49.246Z,7.60
2019-02-24T17:30:18.806Z,7.50
2019-02-24T17:32:48.097Z,7.50
2019-02-24T17:35:17.369Z,7.50
2019-02-24T17:37:46.663Z,7.40
2019-02-24T17:40:15.982Z,7.30
2019-02-24T17:42:45.265Z,7.20
2019-02-24T17:45:14.664Z,7.10
2019-02-24T17:47:44.035Z,7.00
2019-02-24T17:50:13.471Z,6.90
2019-02-24T17:52:42.763Z,6.80
2019-02-24T17:55:12.703Z,6.80
2019-02-24T17:57:42.086Z,6.70
2019-02-24T18:00:14.674Z,6.60
2019-02-24T18:02:44.066Z,6.50
2019-02-24T18:05:13.263Z,6.50
2019-02-24T18:07:42.602Z,6.40
2019-02-24T18:10:11.978Z,6.30
2019-02-24T18:12:41.258Z,6.30
2019-02-24T18:15:11.156Z,6.30
2019-02-24T18:17:40.411Z,6.20
2019-02-24T18:20:10.662Z,6.20
2019-02-24T18:22:39.898Z,6.10
2019-02-24T18:25:10.153Z,6.00
2019-02-24T18:27:39.450Z,6.00
2019-02-24T18:30:12.322Z,6.00
2019-02-24T18:32:41.708Z,6.00
2019-02-24T18:35:11.093Z,6.10
2019-02-24T18:37:40.395Z,6.10
2019-02-24T18:40:13.730Z,6.00
2019-02-24T18:42:43.018Z,5.90
2019-02-24T18:45:12.803Z,5.90
2019-02-24T18:47:42.134Z,5.80
2019-02-24T18:50:12.039Z,5.70
2019-02-24T18:52:41.633Z,5.70
2019-02-24T18:55:11.202Z,5.60
2019-02-24T18:57:40.526Z,5.50
2019-02-24T19:00:12.381Z,5.50
2019-02-24T19:02:45.186Z,5.40
2019-02-24T19:05:14.498Z,5.40
2019-02-24T19:07:43.906Z,5.40
2019-02-24T19:10:14.750Z,5.30
2019-02-24T19:12:44.437Z,5.30
2019-02-24T19:15:15.962Z,5.30
2019-02-24T19:17:45.253Z,5.20
2019-02-24T19:20:16.309Z,5.20
2019-02-24T19:22:45.745Z,5.20
2019-02-24T19:25:15.581Z,5.20
2019-02-24T19:27:45.016Z,5.20
2019-02-24T19:30:15.393Z,5.10
2019-02-24T19:32:44.793Z,5.10
2019-02-24T19:35:14.509Z,5.10
2019-02-24T19:37:44.433Z,5.10
2019-02-24T19:40:15.037Z,5.10
2019-02-24T19:42:44.316Z,5.00
2019-02-24T19:45:15.018Z,5.00
2019-02-24T19:47:44.444Z,5.00
2019-02-24T19:50:15.590Z,4.90
2019-02-24T19:52:45.322Z,4.90
2019-02-24T19:55:19.752Z,4.80
2019-02-24T19:57:49.022Z,4.80
2019-02-24T20:00:19.954Z,4.80
2019-02-24T20:02:49.234Z,4.70
2019-02-24T20:05:18.581Z,4.70
2019-02-24T20:07:47.957Z,4.70
2019-02-24T20:10:19.365Z,4.70
2019-02-24T20:12:48.677Z,4.80
2019-02-24T20:15:17.996Z,4.70
2019-02-24T20:17:47.307Z,4.70
2019-02-24T20:20:16.636Z,4.70
2019-02-24T20:22:46.312Z,4.60
2019-02-24T20:25:15.673Z,4.60
2019-02-24T20:27:52.360Z,4.60
2019-02-24T20:30:23.382Z,4.60
2019-02-24T20:32:52.645Z,4.60
2019-02-24T20:35:22.264Z,4.60
2019-02-24T20:37:51.516Z,4.60
2019-02-24T20:40:21.224Z,4.60
2019-02-24T20:42:50.482Z,4.50
2019-02-24T20:45:20.220Z,4.50
2019-02-24T20:47:49.476Z,4.40
2019-02-24T20:50:19.548Z,4.40
2019-02-24T20:52:48.943Z,4.30
2019-02-24T20:55:18.198Z,4.30
2019-02-24T20:57:47.496Z,4.30
2019-02-24T21:00:25.355Z,4.30
2019-02-24T21:02:54.624Z,4.30
2019-02-24T21:05:23.932Z,4.30
2019-02-24T21:07:53.272Z,4.20
2019-02-24T21:10:23.775Z,4.20
2019-02-24T21:12:53.067Z,4.20
2019-02-24T21:15:22.551Z,4.20
2019-02-24T21:17:51.919Z,4.10
2019-02-24T21:20:23.346Z,4.20
2019-02-24T21:22:52.842Z,4.20
2019-02-24T21:25:22.183Z,4.20
2019-02-24T21:27:51.488Z,4.20
2019-02-24T21:30:21.295Z,4.30
2019-02-24T21:32:50.609Z,4.20
2019-02-24T21:35:19.899Z,4.20
2019-02-24T21:37:49.247Z,4.30
2019-02-24T21:40:18.739Z,4.30
2019-02-24T21:42:47.982Z,4.30
2019-02-24T21:45:18.591Z,4.30
2019-02-24T21:47:47.843Z,4.30
2019-02-24T21:50:17.439Z,4.30
2019-02-24T21:52:47.028Z,4.30
2019-02-24T21:55:16.633Z,4.30
2019-02-24T21:57:45.986Z,4.30
2019-02-24T22:00:17.800Z,4.30
2019-02-24T22:02:47.042Z,4.30
2019-02-24T22:05:16.318Z,4.20
2019-02-24T22:07:46.143Z,4.30
2019-02-24T22:10:16.202Z,4.30
2019-02-24T22:12:45.466Z,4.20
2019-02-24T22:15:16.586Z,4.20
2019-02-24T22:17:45.906Z,4.20
2019-02-24T22:20:16.397Z,4.20
2019-02-24T22:22:46.030Z,4.10
2019-02-24T22:25:15.700Z,4.10
2019-02-24T22:27:45.100Z,4.10
2019-02-24T22:30:15.733Z,4.10
2019-02-24T22:32:45.010Z,4.00
2019-02-24T22:35:14.310Z,4.00
2019-02-24T22:37:43.566Z,3.90
2019-02-24T22:40:13.146Z,3.90
2019-02-24T22:42:42.446Z,3.90
2019-02-24T22:45:13.407Z,3.80
2019-02-24T22:47:43.860Z,3.80
2019-02-24T22:50:13.689Z,3.70
2019-02-24T22:52:42.974Z,3.70
2019-02-24T22:55:12.722Z,3.70
2019-02-24T22:57:42.105Z,3.60
2019-02-24T23:00:36.820Z,3.60
2019-02-24T23:03:06.278Z,3.60
2019-02-24T23:05:35.618Z,3.50
2019-02-24T23:08:04.909Z,3.50
2019-02-24T23:10:34.270Z,3.50
2019-02-24T23:13:03.525Z,3.50
2019-02-24T23:15:33.666Z,3.50
2019-02-24T23:18:03.029Z,3.50
2019-02-24T23:20:32.330Z,3.50
2019-02-24T23:23:01.600Z,3.50
2019-02-24T23:25:30.885Z,3.40
2019-02-24T23:28:00.206Z,3.30
2019-02-24T23:30:29.492Z,3.30
2019-02-24T23:32:58.818Z,3.20
2019-02-24T23:35:28.101Z,3.20
2019-02-24T23:37:57.428Z,3.20
2019-02-24T23:40:26.741Z,3.20
2019-02-24T23:42:56.220Z,3.20
2019-02-24T23:45:25.482Z,3.20
2019-02-24T23:47:54.780Z,3.20
2019-02-24T23:50:24.136Z,3.20
2019-02-24T23:52:53.632Z,3.20
2019-02-24T23:55:23.019Z,3.20
2019-02-24T23:57:52.344Z,3.20
